sensor_id;sensor_type;location;lat;lon;timestamp;P1;durP1;ratioP1;P2;durP2;ratioP2
65636;SDS011;52327;42.622;23.316;2023-06-10T00:02:04;1.67;;;0.88;;
65636;SDS011;52327;42.622;23.316;2023-06-10T00:04:33;2.38;;;1.52;;
65636;SDS011;52327;42.622;23.316;2023-06-10T00:07:02;2.10;;;1.27;;
65636;SDS011;52327;42.622;23.316;2023-06-10T00:09:37;1.45;;;1.05;;
65636;SDS011;52327;42.622;23.316;2023-06-10T00:12:04;1.92;;;1.40;;
65636;SDS011;52327;42.622;23.316;2023-06-10T00:14:31;2.17;;;1.65;;
65636;SDS011;52327;42.622;23.316;2023-06-10T00:17:04;1.88;;;1.40;;
65636;SDS011;52327;42.622;23.316;2023-06-10T00:19:35;3.45;;;2.03;;
65636;SDS011;52327;42.622;23.316;2023-06-10T00:22:01;9.30;;;1.45;;
65636;SDS011;52327;42.622;23.316;2023-06-10T00:24:33;1.98;;;1.27;;
65636;SDS011;52327;42.622;23.316;2023-06-10T00:26:59;1.40;;;1.27;;
65636;SDS011;52327;42.622;23.316;2023-06-10T00:29:24;2.08;;;1.83;;
65636;SDS011;52327;42.622;23.316;2023-06-10T00:31:52;0.70;;;0.70;;
65636;SDS011;52327;42.622;23.316;2023-06-10T00:34:22;2.35;;;1.83;;
65636;SDS011;52327;42.622;23.316;2023-06-10T00:36:48;2.28;;;2.00;;
65636;SDS011;52327;42.622;23.316;2023-06-10T00:39:14;2.00;;;0.88;;
65636;SDS011;52327;42.622;23.316;2023-06-10T00:41:47;2.13;;;1.35;;
65636;SDS011;52327;42.622;23.316;2023-06-10T00:44:18;2.58;;;1.38;;
65636;SDS011;52327;42.622;23.316;2023-06-10T00:46:43;2.30;;;1.92;;
65636;SDS011;52327;42.622;23.316;2023-06-10T00:49:09;1.50;;;1.27;;
65636;SDS011;52327;42.622;23.316;2023-06-10T00:51:37;3.78;;;1.73;;
65636;SDS011;52327;42.622;23.316;2023-06-10T00:54:04;2.28;;;1.73;;
65636;SDS011;52327;42.622;23.316;2023-06-10T00:56:31;2.67;;;1.48;;
65636;SDS011;52327;42.622;23.316;2023-06-10T00:59:00;1.45;;;1.17;;
65636;SDS011;52327;42.622;23.316;2023-06-10T01:01:25;3.30;;;1.83;;
65636;SDS011;52327;42.622;23.316;2023-06-10T01:03:54;2.03;;;1.30;;
65636;SDS011;52327;42.622;23.316;2023-06-10T01:09:02;2.90;;;2.15;;
65636;SDS011;52327;42.622;23.316;2023-06-10T01:11:37;3.63;;;1.90;;
65636;SDS011;52327;42.622;23.316;2023-06-10T01:14:09;2.45;;;1.67;;
65636;SDS011;52327;42.622;23.316;2023-06-10T01:16:35;2.03;;;1.42;;
65636;SDS011;52327;42.622;23.316;2023-06-10T01:19:02;1.55;;;1.17;;
65636;SDS011;52327;42.622;23.316;2023-06-10T01:21:28;2.92;;;2.10;;
65636;SDS011;52327;42.622;23.316;2023-06-10T01:23:54;2.08;;;1.40;;
65636;SDS011;52327;42.622;23.316;2023-06-10T01:26:22;2.20;;;1.38;;
65636;SDS011;52327;42.622;23.316;2023-06-10T01:28:59;1.98;;;1.48;;
65636;SDS011;52327;42.622;23.316;2023-06-10T01:31:42;1.67;;;1.23;;
65636;SDS011;52327;42.622;23.316;2023-06-10T01:34:15;2.17;;;1.58;;
65636;SDS011;52327;42.622;23.316;2023-06-10T01:36:47;4.20;;;2.28;;
65636;SDS011;52327;42.622;23.316;2023-06-10T01:39:17;2.28;;;1.27;;
65636;SDS011;52327;42.622;23.316;2023-06-10T01:41:45;1.17;;;0.95;;
65636;SDS011;52327;42.622;23.316;2023-06-10T01:44:23;1.92;;;1.23;;
65636;SDS011;52327;42.622;23.316;2023-06-10T01:46:49;4.85;;;2.55;;
65636;SDS011;52327;42.622;23.316;2023-06-10T01:49:15;3.05;;;1.88;;
65636;SDS011;52327;42.622;23.316;2023-06-10T01:51:50;4.25;;;1.80;;
65636;SDS011;52327;42.622;23.316;2023-06-10T01:54:16;2.10;;;1.63;;
65636;SDS011;52327;42.622;23.316;2023-06-10T01:56:50;3.75;;;2.25;;
65636;SDS011;52327;42.622;23.316;2023-06-10T01:59:19;2.88;;;1.90;;
65636;SDS011;52327;42.622;23.316;2023-06-10T02:01:47;1.98;;;1.38;;
65636;SDS011;52327;42.622;23.316;2023-06-10T02:04:13;1.48;;;1.10;;
65636;SDS011;52327;42.622;23.316;2023-06-10T02:06:41;1.48;;;1.15;;
65636;SDS011;52327;42.622;23.316;2023-06-10T02:09:07;3.03;;;1.70;;
65636;SDS011;52327;42.622;23.316;2023-06-10T02:11:33;2.78;;;2.17;;
65636;SDS011;52327;42.622;23.316;2023-06-10T02:13:58;1.65;;;1.30;;
65636;SDS011;52327;42.622;23.316;2023-06-10T02:16:24;1.70;;;0.77;;
65636;SDS011;52327;42.622;23.316;2023-06-10T02:18:50;2.08;;;1.70;;
65636;SDS011;52327;42.622;23.316;2023-06-10T02:21:15;1.75;;;1.35;;
65636;SDS011;52327;42.622;23.316;2023-06-10T02:23:41;2.40;;;1.27;;
65636;SDS011;52327;42.622;23.316;2023-06-10T02:26:06;5.45;;;1.83;;
65636;SDS011;52327;42.622;23.316;2023-06-10T02:28:33;1.88;;;1.40;;
65636;SDS011;52327;42.622;23.316;2023-06-10T02:30:59;2.55;;;1.58;;
65636;SDS011;52327;42.622;23.316;2023-06-10T02:33:25;4.45;;;1.80;;
65636;SDS011;52327;42.622;23.316;2023-06-10T02:35:52;1.60;;;1.27;;
65636;SDS011;52327;42.622;23.316;2023-06-10T02:38:20;1.38;;;1.05;;
65636;SDS011;52327;42.622;23.316;2023-06-10T02:40:48;1.45;;;1.20;;
65636;SDS011;52327;42.622;23.316;2023-06-10T02:43:14;1.65;;;1.15;;
65636;SDS011;52327;42.622;23.316;2023-06-10T02:45:42;1.77;;;1.20;;
65636;SDS011;52327;42.622;23.316;2023-06-10T02:48:08;0.82;;;0.63;;
65636;SDS011;52327;42.622;23.316;2023-06-10T02:50:53;1.88;;;1.30;;
65636;SDS011;52327;42.622;23.316;2023-06-10T02:53:22;1.63;;;1.23;;
65636;SDS011;52327;42.622;23.316;2023-06-10T02:55:50;2.58;;;1.42;;
65636;SDS011;52327;42.622;23.316;2023-06-10T02:58:18;1.92;;;1.23;;
65636;SDS011;52327;42.622;23.316;2023-06-10T03:00:50;1.48;;;1.27;;
65636;SDS011;52327;42.622;23.316;2023-06-10T03:03:23;1.08;;;0.85;;
65636;SDS011;52327;42.622;23.316;2023-06-10T03:05:54;1.35;;;1.15;;
65636;SDS011;52327;42.622;23.316;2023-06-10T03:08:21;1.55;;;0.93;;
65636;SDS011;52327;42.622;23.316;2023-06-10T03:10:47;1.10;;;0.80;;
65636;SDS011;52327;42.622;23.316;2023-06-10T03:13:13;2.60;;;1.45;;
65636;SDS011;52327;42.622;23.316;2023-06-10T03:15:41;1.17;;;1.00;;
65636;SDS011;52327;42.622;23.316;2023-06-10T03:18:07;1.02;;;0.57;;
65636;SDS011;52327;42.622;23.316;2023-06-10T03:20:33;1.55;;;0.90;;
65636;SDS011;52327;42.622;23.316;2023-06-10T03:23:03;0.80;;;0.68;;
65636;SDS011;52327;42.622;23.316;2023-06-10T03:25:31;1.55;;;1.25;;
65636;SDS011;52327;42.622;23.316;2023-06-10T03:28:02;1.60;;;1.27;;
65636;SDS011;52327;42.622;23.316;2023-06-10T03:30:28;2.05;;;1.25;;
65636;SDS011;52327;42.622;23.316;2023-06-10T03:32:53;1.25;;;0.82;;
65636;SDS011;52327;42.622;23.316;2023-06-10T03:35:19;1.92;;;1.27;;
65636;SDS011;52327;42.622;23.316;2023-06-10T03:37:44;1.17;;;0.90;;
65636;SDS011;52327;42.622;23.316;2023-06-10T03:40:15;1.58;;;1.20;;
65636;SDS011;52327;42.622;23.316;2023-06-10T03:42:44;0.57;;;0.55;;
65636;SDS011;52327;42.622;23.316;2023-06-10T03:45:10;1.05;;;0.85;;
65636;SDS011;52327;42.622;23.316;2023-06-10T03:47:36;1.95;;;1.27;;
65636;SDS011;52327;42.622;23.316;2023-06-10T03:50:05;1.48;;;1.08;;
65636;SDS011;52327;42.622;23.316;2023-06-10T03:52:33;3.92;;;1.88;;
65636;SDS011;52327;42.622;23.316;2023-06-10T03:55:01;1.70;;;1.35;;
65636;SDS011;52327;42.622;23.316;2023-06-10T03:57:27;3.10;;;1.70;;
65636;SDS011;52327;42.622;23.316;2023-06-10T03:59:53;2.35;;;1.70;;
65636;SDS011;52327;42.622;23.316;2023-06-10T04:02:19;2.55;;;1.23;;
65636;SDS011;52327;42.622;23.316;2023-06-10T04:04:45;0.98;;;0.90;;
65636;SDS011;52327;42.622;23.316;2023-06-10T04:07:11;2.38;;;1.13;;
65636;SDS011;52327;42.622;23.316;2023-06-10T04:09:40;2.10;;;1.17;;
65636;SDS011;52327;42.622;23.316;2023-06-10T04:12:06;2.75;;;1.10;;
65636;SDS011;52327;42.622;23.316;2023-06-10T04:14:35;1.15;;;1.00;;
65636;SDS011;52327;42.622;23.316;2023-06-10T04:17:05;0.80;;;0.80;;
65636;SDS011;52327;42.622;23.316;2023-06-10T04:19:34;2.45;;;1.30;;
65636;SDS011;52327;42.622;23.316;2023-06-10T04:22:00;1.52;;;1.17;;
65636;SDS011;52327;42.622;23.316;2023-06-10T04:24:27;1.50;;;1.15;;
65636;SDS011;52327;42.622;23.316;2023-06-10T04:26:53;1.15;;;1.00;;
65636;SDS011;52327;42.622;23.316;2023-06-10T04:29:18;1.33;;;0.85;;
65636;SDS011;52327;42.622;23.316;2023-06-10T04:31:44;1.02;;;0.93;;
65636;SDS011;52327;42.622;23.316;2023-06-10T04:34:12;1.63;;;1.20;;
65636;SDS011;52327;42.622;23.316;2023-06-10T04:36:38;1.65;;;1.38;;
65636;SDS011;52327;42.622;23.316;2023-06-10T04:39:04;1.67;;;1.17;;
65636;SDS011;52327;42.622;23.316;2023-06-10T04:41:30;1.88;;;1.02;;
65636;SDS011;52327;42.622;23.316;2023-06-10T04:43:56;0.75;;;0.63;;
65636;SDS011;52327;42.622;23.316;2023-06-10T04:46:23;1.25;;;1.15;;
65636;SDS011;52327;42.622;23.316;2023-06-10T04:48:49;1.73;;;1.15;;
65636;SDS011;52327;42.622;23.316;2023-06-10T04:51:15;2.75;;;1.58;;
65636;SDS011;52327;42.622;23.316;2023-06-10T04:53:41;1.55;;;1.23;;
65636;SDS011;52327;42.622;23.316;2023-06-10T04:56:17;1.58;;;1.08;;
65636;SDS011;52327;42.622;23.316;2023-06-10T04:58:43;2.42;;;1.67;;
65636;SDS011;52327;42.622;23.316;2023-06-10T05:01:08;2.38;;;1.52;;
65636;SDS011;52327;42.622;23.316;2023-06-10T05:03:34;2.22;;;1.17;;
65636;SDS011;52327;42.622;23.316;2023-06-10T05:05:59;3.17;;;1.88;;
65636;SDS011;52327;42.622;23.316;2023-06-10T05:08:25;2.33;;;1.77;;
65636;SDS011;52327;42.622;23.316;2023-06-10T05:10:50;3.95;;;2.30;;
65636;SDS011;52327;42.622;23.316;2023-06-10T05:13:16;3.75;;;1.33;;
65636;SDS011;52327;42.622;23.316;2023-06-10T05:15:42;10.43;;;2.17;;
65636;SDS011;52327;42.622;23.316;2023-06-10T05:18:09;2.42;;;1.52;;
65636;SDS011;52327;42.622;23.316;2023-06-10T05:20:37;3.55;;;1.83;;
65636;SDS011;52327;42.622;23.316;2023-06-10T05:23:03;2.90;;;2.05;;
65636;SDS011;52327;42.622;23.316;2023-06-10T05:25:30;4.32;;;1.95;;
65636;SDS011;52327;42.622;23.316;2023-06-10T05:27:57;4.77;;;2.57;;
65636;SDS011;52327;42.622;23.316;2023-06-10T05:30:23;2.47;;;1.63;;
65636;SDS011;52327;42.622;23.316;2023-06-10T05:32:49;4.93;;;2.55;;
65636;SDS011;52327;42.622;23.316;2023-06-10T05:35:16;3.40;;;2.15;;
65636;SDS011;52327;42.622;23.316;2023-06-10T05:37:41;3.88;;;2.35;;
65636;SDS011;52327;42.622;23.316;2023-06-10T05:40:08;2.72;;;2.33;;
65636;SDS011;52327;42.622;23.316;2023-06-10T05:42:33;3.35;;;2.13;;
65636;SDS011;52327;42.622;23.316;2023-06-10T05:44:59;4.40;;;2.40;;
65636;SDS011;52327;42.622;23.316;2023-06-10T05:47:24;3.33;;;2.30;;
65636;SDS011;52327;42.622;23.316;2023-06-10T05:49:50;2.88;;;1.95;;
65636;SDS011;52327;42.622;23.316;2023-06-10T05:52:17;3.22;;;2.28;;
65636;SDS011;52327;42.622;23.316;2023-06-10T05:54:43;1.77;;;1.50;;
65636;SDS011;52327;42.622;23.316;2023-06-10T05:57:08;2.15;;;1.83;;
65636;SDS011;52327;42.622;23.316;2023-06-10T05:59:34;1.90;;;1.38;;
65636;SDS011;52327;42.622;23.316;2023-06-10T06:01:59;2.38;;;1.95;;
65636;SDS011;52327;42.622;23.316;2023-06-10T06:04:25;2.03;;;1.67;;
65636;SDS011;52327;42.622;23.316;2023-06-10T06:06:50;2.63;;;2.15;;
65636;SDS011;52327;42.622;23.316;2023-06-10T06:09:16;2.38;;;2.17;;
65636;SDS011;52327;42.622;23.316;2023-06-10T06:11:41;1.45;;;1.35;;
65636;SDS011;52327;42.622;23.316;2023-06-10T06:14:06;3.15;;;2.33;;
65636;SDS011;52327;42.622;23.316;2023-06-10T06:16:32;2.78;;;1.88;;
65636;SDS011;52327;42.622;23.316;2023-06-10T06:18:58;4.30;;;2.72;;
65636;SDS011;52327;42.622;23.316;2023-06-10T06:21:23;1.95;;;1.77;;
65636;SDS011;52327;42.622;23.316;2023-06-10T06:23:49;3.38;;;1.95;;
65636;SDS011;52327;42.622;23.316;2023-06-10T06:26:14;3.17;;;1.60;;
65636;SDS011;52327;42.622;23.316;2023-06-10T06:28:40;3.38;;;2.28;;
65636;SDS011;52327;42.622;23.316;2023-06-10T06:31:06;3.50;;;2.17;;
65636;SDS011;52327;42.622;23.316;2023-06-10T06:33:32;3.65;;;2.25;;
65636;SDS011;52327;42.622;23.316;2023-06-10T06:35:57;2.53;;;2.00;;
65636;SDS011;52327;42.622;23.316;2023-06-10T06:38:25;2.72;;;2.08;;
65636;SDS011;52327;42.622;23.316;2023-06-10T06:40:51;7.72;;;2.45;;
65636;SDS011;52327;42.622;23.316;2023-06-10T06:43:16;2.80;;;1.98;;
65636;SDS011;52327;42.622;23.316;2023-06-10T06:45:43;4.75;;;2.72;;
65636;SDS011;52327;42.622;23.316;2023-06-10T06:48:10;3.10;;;2.13;;
65636;SDS011;52327;42.622;23.316;2023-06-10T06:50:36;2.00;;;1.60;;
65636;SDS011;52327;42.622;23.316;2023-06-10T06:53:02;2.20;;;1.80;;
65636;SDS011;52327;42.622;23.316;2023-06-10T06:55:28;2.38;;;1.58;;
65636;SDS011;52327;42.622;23.316;2023-06-10T06:57:54;1.67;;;1.25;;
65636;SDS011;52327;42.622;23.316;2023-06-10T07:00:19;2.25;;;1.63;;
65636;SDS011;52327;42.622;23.316;2023-06-10T07:02:45;1.65;;;1.55;;
65636;SDS011;52327;42.622;23.316;2023-06-10T07:05:10;2.63;;;1.67;;
65636;SDS011;52327;42.622;23.316;2023-06-10T07:07:36;3.83;;;2.28;;
65636;SDS011;52327;42.622;23.316;2023-06-10T07:10:01;3.05;;;2.20;;
65636;SDS011;52327;42.622;23.316;2023-06-10T07:12:27;2.00;;;1.80;;
65636;SDS011;52327;42.622;23.316;2023-06-10T07:14:52;1.90;;;1.65;;
65636;SDS011;52327;42.622;23.316;2023-06-10T07:17:18;1.98;;;1.58;;
65636;SDS011;52327;42.622;23.316;2023-06-10T07:19:44;3.53;;;2.20;;
65636;SDS011;52327;42.622;23.316;2023-06-10T07:22:10;3.53;;;2.20;;
65636;SDS011;52327;42.622;23.316;2023-06-10T07:24:35;3.08;;;1.92;;
65636;SDS011;52327;42.622;23.316;2023-06-10T07:27:01;3.40;;;1.67;;
65636;SDS011;52327;42.622;23.316;2023-06-10T07:29:26;1.25;;;1.15;;
65636;SDS011;52327;42.622;23.316;2023-06-10T07:31:51;3.15;;;1.92;;
65636;SDS011;52327;42.622;23.316;2023-06-10T07:34:18;3.75;;;2.13;;
65636;SDS011;52327;42.622;23.316;2023-06-10T07:36:43;2.20;;;1.77;;
65636;SDS011;52327;42.622;23.316;2023-06-10T07:39:09;2.20;;;1.58;;
65636;SDS011;52327;42.622;23.316;2023-06-10T07:41:35;1.45;;;1.00;;
65636;SDS011;52327;42.622;23.316;2023-06-10T07:44:00;2.08;;;1.58;;
65636;SDS011;52327;42.622;23.316;2023-06-10T07:46:26;1.88;;;1.60;;
65636;SDS011;52327;42.622;23.316;2023-06-10T07:48:52;2.25;;;1.50;;
65636;SDS011;52327;42.622;23.316;2023-06-10T07:51:18;1.98;;;1.27;;
65636;SDS011;52327;42.622;23.316;2023-06-10T07:53:44;1.67;;;1.33;;
65636;SDS011;52327;42.622;23.316;2023-06-10T07:56:09;1.70;;;1.40;;
65636;SDS011;52327;42.622;23.316;2023-06-10T07:58:35;1.58;;;0.95;;
65636;SDS011;52327;42.622;23.316;2023-06-10T08:01:00;2.38;;;1.88;;
65636;SDS011;52327;42.622;23.316;2023-06-10T08:03:26;1.42;;;1.02;;
65636;SDS011;52327;42.622;23.316;2023-06-10T08:05:51;1.60;;;1.10;;
65636;SDS011;52327;42.622;23.316;2023-06-10T08:08:17;2.20;;;1.50;;
65636;SDS011;52327;42.622;23.316;2023-06-10T08:10:42;3.95;;;1.75;;
65636;SDS011;52327;42.622;23.316;2023-06-10T08:13:08;2.10;;;1.08;;
65636;SDS011;52327;42.622;23.316;2023-06-10T08:15:33;1.30;;;1.20;;
65636;SDS011;52327;42.622;23.316;2023-06-10T08:17:59;1.25;;;0.95;;
65636;SDS011;52327;42.622;23.316;2023-06-10T08:20:25;1.50;;;1.17;;
65636;SDS011;52327;42.622;23.316;2023-06-10T08:22:51;2.17;;;1.17;;
65636;SDS011;52327;42.622;23.316;2023-06-10T08:25:16;0.70;;;0.70;;
65636;SDS011;52327;42.622;23.316;2023-06-10T08:27:42;1.95;;;1.30;;
65636;SDS011;52327;42.622;23.316;2023-06-10T08:30:07;0.65;;;0.50;;
65636;SDS011;52327;42.622;23.316;2023-06-10T08:32:35;1.38;;;0.82;;
65636;SDS011;52327;42.622;23.316;2023-06-10T08:35:01;1.52;;;1.13;;
65636;SDS011;52327;42.622;23.316;2023-06-10T08:37:26;1.02;;;0.82;;
65636;SDS011;52327;42.622;23.316;2023-06-10T08:39:52;1.02;;;0.73;;
65636;SDS011;52327;42.622;23.316;2023-06-10T08:45:01;0.80;;;0.57;;
65636;SDS011;52327;42.622;23.316;2023-06-10T08:47:29;0.63;;;0.50;;
65636;SDS011;52327;42.622;23.316;2023-06-10T08:50:01;0.73;;;0.57;;
65636;SDS011;52327;42.622;23.316;2023-06-10T08:52:29;1.98;;;1.10;;
65636;SDS011;52327;42.622;23.316;2023-06-10T08:55:08;2.58;;;0.80;;
65636;SDS011;52327;42.622;23.316;2023-06-10T08:57:36;1.20;;;0.68;;
65636;SDS011;52327;42.622;23.316;2023-06-10T09:00:02;1.27;;;0.95;;
65636;SDS011;52327;42.622;23.316;2023-06-10T09:02:28;1.52;;;1.05;;
65636;SDS011;52327;42.622;23.316;2023-06-10T09:04:53;0.90;;;0.65;;
65636;SDS011;52327;42.622;23.316;2023-06-10T09:07:22;1.50;;;0.80;;
65636;SDS011;52327;42.622;23.316;2023-06-10T09:09:48;1.98;;;1.10;;
65636;SDS011;52327;42.622;23.316;2023-06-10T09:12:14;2.58;;;1.15;;
65636;SDS011;52327;42.622;23.316;2023-06-10T09:14:40;1.05;;;0.88;;
65636;SDS011;52327;42.622;23.316;2023-06-10T09:17:07;0.95;;;0.90;;
65636;SDS011;52327;42.622;23.316;2023-06-10T09:19:32;0.50;;;0.50;;
65636;SDS011;52327;42.622;23.316;2023-06-10T09:21:58;1.48;;;1.00;;
65636;SDS011;52327;42.622;23.316;2023-06-10T09:24:24;1.25;;;0.80;;
65636;SDS011;52327;42.622;23.316;2023-06-10T09:26:52;1.73;;;0.73;;
65636;SDS011;52327;42.622;23.316;2023-06-10T09:29:31;2.35;;;0.90;;
65636;SDS011;52327;42.622;23.316;2023-06-10T09:32:10;0.75;;;0.73;;
65636;SDS011;52327;42.622;23.316;2023-06-10T09:34:36;1.02;;;0.73;;
65636;SDS011;52327;42.622;23.316;2023-06-10T09:37:01;1.35;;;1.25;;
65636;SDS011;52327;42.622;23.316;2023-06-10T09:39:27;1.02;;;0.85;;
65636;SDS011;52327;42.622;23.316;2023-06-10T09:41:53;0.95;;;0.80;;
65636;SDS011;52327;42.622;23.316;2023-06-10T09:44:21;1.52;;;0.98;;
65636;SDS011;52327;42.622;23.316;2023-06-10T09:46:47;1.45;;;1.05;;
65636;SDS011;52327;42.622;23.316;2023-06-10T09:49:14;1.00;;;0.70;;
65636;SDS011;52327;42.622;23.316;2023-06-10T09:51:53;1.13;;;1.00;;
65636;SDS011;52327;42.622;23.316;2023-06-10T09:54:20;1.08;;;0.90;;
65636;SDS011;52327;42.622;23.316;2023-06-10T09:56:47;1.67;;;1.13;;
65636;SDS011;52327;42.622;23.316;2023-06-10T09:59:13;1.75;;;1.13;;
65636;SDS011;52327;42.622;23.316;2023-06-10T10:01:39;1.35;;;0.90;;
65636;SDS011;52327;42.622;23.316;2023-06-10T10:04:05;1.58;;;1.20;;
65636;SDS011;52327;42.622;23.316;2023-06-10T10:06:30;1.05;;;0.75;;
65636;SDS011;52327;42.622;23.316;2023-06-10T10:08:59;0.80;;;0.75;;
65636;SDS011;52327;42.622;23.316;2023-06-10T10:11:25;0.75;;;0.65;;
65636;SDS011;52327;42.622;23.316;2023-06-10T10:13:51;1.13;;;0.70;;
65636;SDS011;52327;42.622;23.316;2023-06-10T10:16:26;1.17;;;0.98;;
65636;SDS011;52327;42.622;23.316;2023-06-10T10:19:07;0.88;;;0.55;;
65636;SDS011;52327;42.622;23.316;2023-06-10T10:21:40;0.90;;;0.75;;
65636;SDS011;52327;42.622;23.316;2023-06-10T10:24:12;1.27;;;1.02;;
65636;SDS011;52327;42.622;23.316;2023-06-10T10:26:42;0.82;;;0.68;;
65636;SDS011;52327;42.622;23.316;2023-06-10T10:31:50;2.17;;;1.67;;
65636;SDS011;52327;42.622;23.316;2023-06-10T10:34:21;1.90;;;1.08;;
65636;SDS011;52327;42.622;23.316;2023-06-10T10:36:51;0.60;;;0.60;;
65636;SDS011;52327;42.622;23.316;2023-06-10T10:39:16;2.30;;;0.90;;
65636;SDS011;52327;42.622;23.316;2023-06-10T10:41:43;1.45;;;0.98;;
65636;SDS011;52327;42.622;23.316;2023-06-10T10:44:09;0.68;;;0.68;;
65636;SDS011;52327;42.622;23.316;2023-06-10T10:46:43;1.98;;;0.90;;
65636;SDS011;52327;42.622;23.316;2023-06-10T10:49:10;1.17;;;0.80;;
65636;SDS011;52327;42.622;23.316;2023-06-10T10:51:44;0.70;;;0.60;;
65636;SDS011;52327;42.622;23.316;2023-06-10T10:54:20;1.15;;;0.90;;
65636;SDS011;52327;42.622;23.316;2023-06-10T11:05:16;0.82;;;0.70;;
65636;SDS011;52327;42.622;23.316;2023-06-10T11:10:35;0.77;;;0.60;;
65636;SDS011;52327;42.622;23.316;2023-06-10T11:13:05;0.77;;;0.75;;
65636;SDS011;52327;42.622;23.316;2023-06-10T11:15:39;0.85;;;0.70;;
65636;SDS011;52327;42.622;23.316;2023-06-10T11:18:12;1.58;;;1.02;;
65636;SDS011;52327;42.622;23.316;2023-06-10T11:31:26;1.83;;;0.80;;
65636;SDS011;52327;42.622;23.316;2023-06-10T11:33:56;0.98;;;0.77;;
65636;SDS011;52327;42.622;23.316;2023-06-10T11:36:24;1.27;;;0.90;;
65636;SDS011;52327;42.622;23.316;2023-06-10T11:38:55;0.85;;;0.77;;
65636;SDS011;52327;42.622;23.316;2023-06-10T11:41:26;1.45;;;0.95;;
65636;SDS011;52327;42.622;23.316;2023-06-10T11:43:56;1.60;;;1.15;;
65636;SDS011;52327;42.622;23.316;2023-06-10T11:46:25;1.55;;;0.85;;
65636;SDS011;52327;42.622;23.316;2023-06-10T11:48:55;1.55;;;1.10;;
65636;SDS011;52327;42.622;23.316;2023-06-10T11:51:24;1.27;;;0.98;;
65636;SDS011;52327;42.622;23.316;2023-06-10T11:53:51;1.17;;;0.68;;
65636;SDS011;52327;42.622;23.316;2023-06-10T11:58:51;1.67;;;0.95;;
65636;SDS011;52327;42.622;23.316;2023-06-10T12:01:29;1.77;;;1.13;;
65636;SDS011;52327;42.622;23.316;2023-06-10T12:03:56;1.83;;;0.95;;
65636;SDS011;52327;42.622;23.316;2023-06-10T12:06:26;1.17;;;1.00;;
65636;SDS011;52327;42.622;23.316;2023-06-10T12:08:53;1.40;;;0.77;;
65636;SDS011;52327;42.622;23.316;2023-06-10T12:11:18;1.42;;;0.93;;
65636;SDS011;52327;42.622;23.316;2023-06-10T12:13:46;1.40;;;1.08;;
65636;SDS011;52327;42.622;23.316;2023-06-10T12:16:15;1.17;;;0.98;;
65636;SDS011;52327;42.622;23.316;2023-06-10T12:18:46;1.17;;;0.80;;
65636;SDS011;52327;42.622;23.316;2023-06-10T12:21:24;1.55;;;0.85;;
65636;SDS011;52327;42.622;23.316;2023-06-10T12:26:34;0.80;;;0.70;;
65636;SDS011;52327;42.622;23.316;2023-06-10T12:29:23;1.27;;;1.00;;
65636;SDS011;52327;42.622;23.316;2023-06-10T12:31:53;1.02;;;0.82;;
65636;SDS011;52327;42.622;23.316;2023-06-10T12:34:19;1.30;;;0.93;;
65636;SDS011;52327;42.622;23.316;2023-06-10T12:36:48;1.90;;;0.90;;
65636;SDS011;52327;42.622;23.316;2023-06-10T12:39:14;1.42;;;0.80;;
65636;SDS011;52327;42.622;23.316;2023-06-10T12:41:39;0.85;;;0.80;;
65636;SDS011;52327;42.622;23.316;2023-06-10T12:44:05;2.00;;;1.17;;
65636;SDS011;52327;42.622;23.316;2023-06-10T12:46:37;1.20;;;0.90;;
65636;SDS011;52327;42.622;23.316;2023-06-10T12:49:02;1.08;;;0.85;;
65636;SDS011;52327;42.622;23.316;2023-06-10T12:51:28;0.50;;;0.50;;
65636;SDS011;52327;42.622;23.316;2023-06-10T12:53:53;2.78;;;1.45;;
65636;SDS011;52327;42.622;23.316;2023-06-10T12:56:19;0.90;;;0.73;;
65636;SDS011;52327;42.622;23.316;2023-06-10T12:58:44;1.35;;;1.05;;
65636;SDS011;52327;42.622;23.316;2023-06-10T13:01:10;0.85;;;0.80;;
65636;SDS011;52327;42.622;23.316;2023-06-10T13:03:37;1.48;;;0.93;;
65636;SDS011;52327;42.622;23.316;2023-06-10T13:06:04;2.00;;;1.10;;
65636;SDS011;52327;42.622;23.316;2023-06-10T13:08:30;2.33;;;1.58;;
65636;SDS011;52327;42.622;23.316;2023-06-10T13:10:56;1.48;;;1.10;;
65636;SDS011;52327;42.622;23.316;2023-06-10T13:13:21;0.95;;;0.63;;
65636;SDS011;52327;42.622;23.316;2023-06-10T13:15:47;1.20;;;0.98;;
65636;SDS011;52327;42.622;23.316;2023-06-10T13:18:17;1.60;;;1.15;;
65636;SDS011;52327;42.622;23.316;2023-06-10T13:20:45;1.15;;;0.75;;
65636;SDS011;52327;42.622;23.316;2023-06-10T13:23:11;0.98;;;0.90;;
65636;SDS011;52327;42.622;23.316;2023-06-10T13:25:36;1.27;;;0.80;;
65636;SDS011;52327;42.622;23.316;2023-06-10T13:28:02;1.33;;;1.00;;
65636;SDS011;52327;42.622;23.316;2023-06-10T13:30:27;1.20;;;0.63;;
65636;SDS011;52327;42.622;23.316;2023-06-10T13:32:53;2.05;;;1.10;;
65636;SDS011;52327;42.622;23.316;2023-06-10T13:35:18;1.20;;;0.80;;
65636;SDS011;52327;42.622;23.316;2023-06-10T13:37:44;1.80;;;1.10;;
65636;SDS011;52327;42.622;23.316;2023-06-10T13:40:11;1.38;;;0.52;;
65636;SDS011;52327;42.622;23.316;2023-06-10T13:42:37;1.38;;;0.90;;
65636;SDS011;52327;42.622;23.316;2023-06-10T13:45:03;1.20;;;0.77;;
65636;SDS011;52327;42.622;23.316;2023-06-10T13:47:29;2.47;;;1.45;;
65636;SDS011;52327;42.622;23.316;2023-06-10T13:49:55;0.90;;;0.70;;
65636;SDS011;52327;42.622;23.316;2023-06-10T13:52:20;1.58;;;0.77;;
65636;SDS011;52327;42.622;23.316;2023-06-10T13:54:46;0.63;;;0.50;;
65636;SDS011;52327;42.622;23.316;2023-06-10T13:57:11;1.95;;;0.98;;
65636;SDS011;52327;42.622;23.316;2023-06-10T13:59:36;0.88;;;0.63;;
65636;SDS011;52327;42.622;23.316;2023-06-10T14:02:02;2.45;;;0.63;;
65636;SDS011;52327;42.622;23.316;2023-06-10T14:04:28;2.10;;;0.68;;
65636;SDS011;52327;42.622;23.316;2023-06-10T14:06:54;2.08;;;1.20;;
65636;SDS011;52327;42.622;23.316;2023-06-10T14:09:20;1.20;;;0.95;;
65636;SDS011;52327;42.622;23.316;2023-06-10T14:11:45;2.35;;;1.23;;
65636;SDS011;52327;42.622;23.316;2023-06-10T14:14:11;2.95;;;1.52;;
65636;SDS011;52327;42.622;23.316;2023-06-10T14:16:36;1.33;;;0.98;;
65636;SDS011;52327;42.622;23.316;2023-06-10T14:19:02;1.60;;;0.98;;
65636;SDS011;52327;42.622;23.316;2023-06-10T14:21:27;2.28;;;0.93;;
65636;SDS011;52327;42.622;23.316;2023-06-10T14:23:53;1.58;;;0.82;;
65636;SDS011;52327;42.622;23.316;2023-06-10T14:26:18;1.33;;;1.08;;
65636;SDS011;52327;42.622;23.316;2023-06-10T14:28:46;5.20;;;1.55;;
65636;SDS011;52327;42.622;23.316;2023-06-10T14:31:12;1.20;;;0.95;;
65636;SDS011;52327;42.622;23.316;2023-06-10T14:33:37;1.50;;;1.02;;
65636;SDS011;52327;42.622;23.316;2023-06-10T14:36:04;0.65;;;0.55;;
65636;SDS011;52327;42.622;23.316;2023-06-10T14:38:30;1.88;;;1.20;;
65636;SDS011;52327;42.622;23.316;2023-06-10T14:40:55;2.03;;;1.13;;
65636;SDS011;52327;42.622;23.316;2023-06-10T14:43:21;1.98;;;1.20;;
65636;SDS011;52327;42.622;23.316;2023-06-10T14:45:46;1.00;;;0.90;;
65636;SDS011;52327;42.622;23.316;2023-06-10T14:48:11;3.05;;;1.20;;
65636;SDS011;52327;42.622;23.316;2023-06-10T14:50:38;1.90;;;0.90;;
65636;SDS011;52327;42.622;23.316;2023-06-10T14:53:05;1.40;;;1.05;;
65636;SDS011;52327;42.622;23.316;2023-06-10T14:55:30;1.02;;;0.93;;
65636;SDS011;52327;42.622;23.316;2023-06-10T14:57:56;2.08;;;1.25;;
65636;SDS011;52327;42.622;23.316;2023-06-10T15:00:22;1.50;;;1.08;;
65636;SDS011;52327;42.622;23.316;2023-06-10T15:02:49;0.88;;;0.77;;
65636;SDS011;52327;42.622;23.316;2023-06-10T15:05:16;1.10;;;0.80;;
65636;SDS011;52327;42.622;23.316;2023-06-10T15:07:42;1.58;;;1.00;;
65636;SDS011;52327;42.622;23.316;2023-06-10T15:10:08;1.92;;;1.15;;